Time;durP1;ratioP1;P1;durP2;ratioP2;P2;SDS_P1;SDS_P2;PMS_P1;PMS_P2;Temp;Humidity;BMP_temperature;BMP_pressure;BME280_temperature;BME280_humidity;BME280_pressure;Samples;Min_cycle;Max_cycle;Signal;HPM_P1;HPM_P2
2022/12/27 00:01:17;;;;;;;7.35;4.00;;;;;;;17.94;45.12;101943.88;5023401;28;20029;-63
2022/12/27 00:03:42;;;;;;;7.35;3.88;;;;;;;17.93;44.82;101929.56;5024645;28;20024;-63
2022/12/27 00:06:13;;;;;;;7.78;3.88;;;;;;;17.93;44.94;101939.47;5024565;28;20057;-63
2022/12/27 00:08:38;;;;;;;6.38;3.72;;;;;;;17.92;45.25;101938.59;5024337;28;20022;-63
2022/12/27 00:11:10;;;;;;;6.43;3.58;;;;;;;17.91;45.20;101930.69;5024390;28;20072;-63
2022/12/27 00:13:35;;;;;;;6.30;3.17;;;;;;;17.89;45.21;101921.91;5023843;28;20033;-63
2022/12/27 00:16:09;;;;;;;7.03;4.32;;;;;;;17.89;45.22;101928.13;5027559;28;20035;-63
2022/12/27 00:18:35;;;;;;;8.10;4.45;;;;;;;17.89;45.03;101938.03;5042919;28;20021;-64
2022/12/27 00:21:02;;;;;;;6.35;3.33;;;;;;;17.89;45.22;101929.97;5043989;28;20426;-63
2022/12/27 00:23:31;;;;;;;5.82;3.72;;;;;;;17.87;44.78;101940.00;5044117;28;20037;-63
2022/12/27 00:26:03;;;;;;;;;;;;;;;17.87;45.06;101940.84;5044724;28;20052;-63
2022/12/27 00:28:32;;;;;;;8.77;4.78;;;;;;;17.87;45.09;101940.00;5044068;28;19975;-64
2022/12/27 00:30:57;;;;;;;;;;;;;;;17.85;45.05;101934.78;5043944;28;20029;-63
2022/12/27 00:33:23;;;;;;;8.73;5.22;;;;;;;17.83;45.25;101942.13;5059345;28;19909;-63
2022/12/27 00:35:48;;;;;;;6.93;3.25;;;;;;;17.83;44.93;101939.41;5044054;28;20029;-63
2022/12/27 00:38:14;;;;;;;9.48;3.95;;;;;;;17.82;44.88;101940.41;5044069;28;20553;-62
2022/12/27 00:40:40;;;;;;;5.35;3.38;;;;;;;17.81;45.02;101945.94;5043704;28;20087;-62
2022/12/27 00:43:05;;;;;;;7.15;3.30;;;;;;;17.81;45.05;101940.56;5043924;28;20055;-62
2022/12/27 00:45:30;;;;;;;8.10;3.95;;;;;;;17.80;45.25;101936.16;5042938;28;20026;-62
2022/12/27 00:47:56;;;;;;;5.22;3.10;;;;;;;17.79;45.21;101929.06;5043610;28;20037;-62
2022/12/27 00:50:21;;;;;;;7.88;3.70;;;;;;;17.74;45.12;101924.09;5043879;28;20124;-62
2022/12/27 00:52:46;;;;;;;5.25;3.13;;;;;;;17.72;45.18;101931.44;5043889;28;20097;-62
2022/12/27 00:55:11;;;;;;;4.75;2.83;;;;;;;17.78;45.06;101947.06;5044018;28;20033;-62
2022/12/27 00:57:37;;;;;;;6.32;3.97;;;;;;;17.78;45.11;101943.53;5043382;28;20048;-62
2022/12/27 01:00:04;;;;;;;5.00;3.05;;;;;;;17.76;44.94;101954.44;5043518;28;20026;-63
2022/12/27 01:02:29;;;;;;;5.40;3.20;;;;;;;17.76;45.23;101943.66;5043935;28;20068;-63
2022/12/27 01:04:56;;;;;;;6.00;3.22;;;;;;;17.76;45.23;101953.56;5043630;28;20021;-63
2022/12/27 01:07:22;;;;;;;5.68;3.22;;;;;;;17.75;44.90;101960.75;5044000;28;20028;-63
2022/12/27 01:09:47;;;;;;;6.07;3.65;;;;;;;17.73;44.99;101954.66;5043739;28;20451;-63
2022/12/27 01:12:12;;;;;;;4.38;2.95;;;;;;;17.74;45.18;101959.06;5059132;28;20025;-62
2022/12/27 01:14:37;;;;;;;4.30;2.70;;;;;;;17.69;44.90;101947.84;5043559;28;20029;-62
2022/12/27 01:17:03;;;;;;;4.45;2.75;;;;;;;17.71;45.02;101953.91;5043317;28;20025;-62
2022/12/27 01:19:28;;;;;;;6.38;3.38;;;;;;;17.71;44.93;101954.81;5043825;28;20538;-62
2022/12/27 01:21:53;;;;;;;4.88;2.90;;;;;;;17.70;44.79;101961.16;5043581;28;20026;-62
2022/12/27 01:24:19;;;;;;;5.30;2.85;;;;;;;17.69;45.05;101970.22;5043784;28;20031;-62
2022/12/27 01:26:44;;;;;;;4.75;2.67;;;;;;;17.70;44.83;101976.44;5047029;28;20025;-62
2022/12/27 01:29:11;;;;;;;5.07;2.45;;;;;;;17.69;45.21;101980.13;5047229;28;20040;-62
2022/12/27 01:31:36;;;;;;;5.65;3.15;;;;;;;17.68;44.79;101981.97;5045744;28;20053;-62
2022/12/27 01:34:02;;;;;;;5.15;3.00;;;;;;;17.68;44.90;101984.66;5047027;28;20099;-62
2022/12/27 01:36:28;;;;;;;6.38;2.75;;;;;;;17.68;45.07;101990.03;5047156;28;20032;-62
2022/12/27 01:38:53;;;;;;;5.53;2.85;;;;;;;17.64;44.81;101991.28;5047087;28;20033;-62
2022/12/27 01:44:38;;;;;;;4.85;2.72;;;;;;;17.67;44.79;101992.84;5048914;28;20037;-62
2022/12/27 01:47:32;;;;;;;5.32;2.72;;;;;;;17.65;45.00;102001.03;5044901;28;20022;-61
2022/12/27 01:50:08;;;;;;;6.10;2.92;;;;;;;17.66;44.81;102012.66;5046288;28;20056;-62
2022/12/27 01:52:40;;;;;;;4.85;2.70;;;;;;;17.64;44.82;102002.03;5047036;28;20421;-62
2022/12/27 01:55:16;;;;;;;6.07;2.88;;;;;;;17.64;44.66;102010.09;5045389;28;20086;-62
2022/12/27 01:57:42;;;;;;;7.15;3.03;;;;;;;17.64;44.66;102006.56;5046313;28;20045;-62
2022/12/27 02:00:08;;;;;;;4.18;2.63;;;;;;;17.62;44.63;102006.69;5046443;28;20084;-63
2022/12/27 02:02:33;;;;;;;5.43;2.30;;;;;;;17.62;44.74;102011.22;5046601;28;20021;-62
2022/12/27 02:04:58;;;;;;;7.65;3.00;;;;;;;17.38;44.61;101980.09;5045260;28;20092;-62
2022/12/27 02:07:26;;;;;;;5.07;2.92;;;;;;;17.62;44.83;102024.66;5046327;28;20234;-62
2022/12/27 02:09:55;;;;;;;4.93;2.65;;;;;;;17.60;44.55;102015.88;5061631;28;20029;-63
2022/12/27 02:12:20;;;;;;;3.95;2.35;;;;;;;17.59;44.60;102024.94;5045263;28;20029;-62
2022/12/27 02:14:48;;;;;;;3.90;2.65;;;;;;;17.61;44.64;102033.72;5045733;28;20127;-61
2022/12/27 02:17:24;;;;;;;3.70;2.33;;;;;;;17.60;44.52;102029.34;5045418;28;20034;-62
2022/12/27 02:19:56;;;;;;;3.97;2.72;;;;;;;17.60;44.75;102024.81;5044722;28;20089;-63
2022/12/27 02:24:01;;;;;;;4.45;2.67;;;;;;;17.59;44.55;102028.50;5044955;28;20036;-63
2022/12/27 02:25:39;;;;;;;4.40;2.60;;;;;;;17.59;44.64;102028.50;5046448;28;20084;-62
2022/12/27 02:28:19;;;;;;;4.65;2.65;;;;;;;17.60;44.59;102034.72;5045795;28;20030;-62
2022/12/27 02:30:46;;;;;;;4.65;2.47;;;;;;;17.59;44.76;102036.56;5044217;28;20017;-62
2022/12/27 02:33:15;;;;;;;3.53;2.40;;;;;;;17.58;44.80;102034.81;5044977;28;20029;-62
2022/12/27 02:35:44;;;;;;;3.45;2.38;;;;;;;17.59;44.79;102043.78;5044650;28;20386;-62
2022/12/27 02:38:13;;;;;;;5.35;2.30;;;;;;;17.58;44.55;102036.66;5043799;28;20053;-62
2022/12/27 02:54:56;;;;;;;3.30;2.47;;;;;;;17.58;44.60;102042.03;5024854;28;20041;-63
2022/12/27 02:57:44;;;;;;;5.40;2.65;;;;;;;17.58;44.69;102042.88;5025909;28;20026;-62
2022/12/27 03:03:30;;;;;;;3.95;2.45;;;;;;;17.58;44.66;102039.34;4989931;28;20446;-62
2022/12/27 03:09:12;;;;;;;3.88;2.13;;;;;;;17.58;44.49;102055.50;5003385;28;20114;-62
2022/12/27 03:17:30;;;;;;;3.22;2.03;;;;;;;17.56;44.74;102042.19;5002440;28;20081;-63
2022/12/27 03:25:32;;;;;;;4.05;2.30;;;;;;;17.53;44.48;102053.19;5002904;28;20073;-63
2022/12/27 03:33:11;;;;;;;2.63;1.92;;;;;;;17.45;44.88;102036.88;4986491;28;20149;-63
2022/12/27 03:33:47;;;;;;;3.42;2.05;;;;;;;17.54;44.50;102054.03;4989407;28;20032;-63
2022/12/27 03:39:15;;;;;;;2.90;2.08;;;;;;;17.54;44.65;102057.59;5023965;28;20029;-63
2022/12/27 03:44:29;;;;;;;3.10;2.00;;;;;;;17.55;44.48;102058.47;5024153;28;20036;-63
2022/12/27 03:46:59;;;;;;;3.92;2.08;;;;;;;17.54;44.58;102068.34;5051904;28;20056;-63
2022/12/27 03:49:24;;;;;;;2.45;1.60;;;;;;;17.55;44.54;102066.53;5059842;28;20471;-63
2022/12/27 03:52:04;;;;;;;3.38;2.13;;;;;;;17.46;44.54;102060.09;5044388;28;20490;-63
2022/12/27 03:54:32;;;;;;;3.47;1.80;;;;;;;17.55;44.62;102071.91;5043495;28;20029;-63
2022/12/27 03:57:04;;;;;;;3.35;2.25;;;;;;;17.56;44.68;102076.28;5059859;28;20025;-63
2022/12/27 03:59:30;;;;;;;2.97;1.90;;;;;;;17.56;44.64;102073.59;5059674;28;20029;-63
2022/12/27 04:01:55;;;;;;;3.33;1.80;;;;;;;17.55;44.46;102074.59;5059518;28;20092;-63
2022/12/27 04:04:21;;;;;;;3.33;2.03;;;;;;;17.53;44.62;102071.16;5059829;28;20025;-63
2022/12/27 04:06:46;;;;;;;3.33;2.10;;;;;;;17.56;44.54;102076.28;5043954;28;20415;-62
2022/12/27 04:36:32;;;;;;;3.80;1.67;;;;;;;17.56;43.88;102104.03;5043485;28;20116;-62
2022/12/27 04:38:57;;;;;;;3.35;1.80;;;;;;;17.55;44.44;102099.66;5043624;28;20038;-62
2022/12/27 04:55:18;;;;;;;2.53;1.60;;;;;;;17.58;44.07;102110.13;5043746;28;20064;-65
2022/12/27 04:57:44;;;;;;;3.17;1.73;;;;;;;17.58;44.20;102107.44;5043978;28;20017;-62
2022/12/27 05:02:54;;;;;;;2.47;1.40;;;;;;;17.59;44.01;102117.22;5047799;28;20501;-63
2022/12/27 05:05:19;;;;;;;3.05;1.73;;;;;;;17.60;44.19;102108.16;5047518;28;20037;-62
2022/12/27 05:15:57;;;;;;;2.38;1.73;;;;;;;17.61;43.96;102126.00;5046296;28;20040;-62
2022/12/27 05:18:23;;;;;;;2.33;1.50;;;;;;;17.62;44.10;102122.31;5047628;28;20112;-62
2022/12/27 05:20:48;;;;;;;3.90;1.90;;;;;;;17.62;44.07;102118.78;5040333;28;20037;-62
2022/12/27 05:25:57;;;;;;;3.33;1.60;;;;;;;17.62;44.04;102119.63;5033981;28;20623;-63
2022/12/27 05:28:23;;;;;;;2.92;1.67;;;;;;;17.64;43.96;102123.06;5045744;28;20025;-61
2022/12/27 05:30:48;;;;;;;2.35;1.35;;;;;;;17.65;43.98;102126.59;5045813;28;20039;-61
2022/12/27 05:33:13;;;;;;;2.70;1.45;;;;;;;17.64;43.90;102125.75;5045747;28;20030;-61
2022/12/27 05:35:39;;;;;;;3.05;1.77;;;;;;;17.64;44.20;102139.19;5045184;28;20532;-60
2022/12/27 05:38:05;;;;;;;2.25;1.40;;;;;;;17.65;44.06;102145.44;5045054;28;20034;-61
2022/12/27 05:40:30;;;;;;;3.15;1.73;;;;;;;17.65;44.05;102148.97;5045261;28;20028;-61
2022/12/27 05:42:59;;;;;;;3.88;1.80;;;;;;;17.66;44.08;102147.97;5045765;28;20030;-60
2022/12/27 05:45:25;;;;;;;;;;;;;;;17.65;44.16;102154.34;5042739;28;20028;-60
2022/12/27 05:47:50;;;;;;;2.65;1.52;;;;;;;17.65;44.19;102158.88;5040196;28;19917;-61
2022/12/27 05:50:16;;;;;;;3.10;1.80;;;;;;;17.64;44.09;102174.16;5045850;28;20030;-60
2022/12/27 05:52:41;;;;;;;2.53;1.80;;;;;;;17.63;44.43;102163.56;5045640;28;20024;-61
2022/12/27 05:55:07;;;;;;;2.38;1.33;;;;;;;17.63;44.20;102163.56;5045900;28;20025;-60
2022/12/27 05:57:32;;;;;;;2.53;1.42;;;;;;;17.66;44.05;102163.25;5045607;28;20020;-61
2022/12/27 05:59:58;;;;;;;2.75;1.63;;;;;;;17.66;44.36;102163.25;5045716;28;20036;-60
2022/12/27 06:02:23;;;;;;;7.10;2.28;;;;;;;17.65;44.11;102166.94;5045600;28;20112;-61
2022/12/27 06:04:49;;;;;;;2.17;1.35;;;;;;;17.65;44.39;102177.69;5044916;28;20037;-61
2022/12/27 06:07:15;;;;;;;2.95;1.50;;;;;;;17.64;44.56;102184.94;5041151;28;21755;-60
2022/12/27 06:09:40;;;;;;;2.45;1.20;;;;;;;17.62;44.37;102173.41;5045296;28;20037;-61
2022/12/27 06:12:06;;;;;;;6.18;1.75;;;;;;;17.65;44.39;102178.56;5057671;28;20025;-60
2022/12/27 06:14:31;;;;;;;2.95;1.80;;;;;;;17.66;44.91;102179.41;5044914;28;20029;-60
2022/12/27 06:16:56;;;;;;;2.05;1.40;;;;;;;17.66;44.49;102185.63;5044597;28;20021;-61
2022/12/27 06:19:22;;;;;;;3.05;1.55;;;;;;;17.65;44.65;102181.25;5045121;28;20029;-60
2022/12/27 06:21:47;;;;;;;2.85;1.55;;;;;;;17.57;44.47;102170.28;5045111;28;20072;-61
2022/12/27 06:24:12;;;;;;;4.32;2.42;;;;;;;17.65;44.69;102177.69;5045108;28;20040;-60
2022/12/27 06:26:38;;;;;;;3.20;1.42;;;;;;;17.65;44.77;102183.94;5044126;28;20035;-60
2022/12/27 06:29:03;;;;;;;4.07;1.77;;;;;;;17.66;44.62;102191.00;5045026;28;20029;-60
2022/12/27 06:31:28;;;;;;;2.22;1.40;;;;;;;17.65;44.74;102183.09;5042808;28;20061;-60
2022/12/27 06:33:54;;;;;;;2.72;1.77;;;;;;;17.69;44.96;102195.28;5045085;28;20056;-60
2022/12/27 06:36:22;;;;;;;3.05;1.70;;;;;;;17.68;45.01;102178.31;5043712;28;20087;-60
2022/12/27 06:38:48;;;;;;;2.22;1.48;;;;;;;17.68;45.02;102181.00;5043890;28;20021;-60
2022/12/27 06:41:18;;;;;;;3.70;1.70;;;;;;;17.68;45.06;102189.06;5044912;28;20022;-60
2022/12/27 06:43:45;;;;;;;3.65;1.50;;;;;;;17.70;44.99;102188.91;5042504;28;20017;-60
2022/12/27 06:46:13;;;;;;;2.70;1.55;;;;;;;17.69;45.05;102190.75;5043709;28;20085;-60
2022/12/27 06:48:38;;;;;;;3.78;1.77;;;;;;;17.69;45.20;102187.22;5044401;28;20052;-60
2022/12/27 06:51:09;;;;;;;2.65;1.58;;;;;;;17.71;45.12;102193.31;5044599;28;20025;-60
2022/12/27 06:53:35;;;;;;;2.85;1.60;;;;;;;17.70;44.93;102200.53;5043638;28;20021;-60
2022/12/27 06:56:08;;;;;;;2.58;1.80;;;;;;;17.70;45.17;102203.22;5044694;28;20026;-60
2022/12/27 06:58:34;;;;;;;2.72;1.42;;;;;;;17.70;44.91;102200.53;5059631;28;20021;-60
2022/12/27 07:01:14;;;;;;;2.65;1.85;;;;;;;17.70;45.22;102211.28;5044231;28;20091;-60
2022/12/27 07:03:39;;;;;;;2.13;1.50;;;;;;;17.70;44.99;102216.66;5043045;28;20021;-61
2022/12/27 07:06:07;;;;;;;2.90;1.40;;;;;;;17.71;45.35;102225.59;5044202;28;20075;-60
2022/12/27 07:08:34;;;;;;;2.75;1.50;;;;;;;17.64;45.09;102219.03;5044323;28;20026;-60
2022/12/27 07:11:07;;;;;;;7.30;1.63;;;;;;;17.68;45.08;102226.72;5043773;28;20021;-60
2022/12/27 07:13:34;;;;;;;2.30;1.40;;;;;;;17.69;45.15;102238.31;5044701;28;20029;-60
2022/12/27 07:15:59;;;;;;;3.30;1.60;;;;;;;17.68;44.99;102245.53;5041807;28;20033;-60
2022/12/27 07:18:25;;;;;;;4.63;1.65;;;;;;;17.64;45.30;102235.16;5044103;28;20121;-60
2022/12/27 07:20:50;;;;;;;4.38;1.60;;;;;;;17.68;45.13;102247.38;5043984;28;20049;-61
2022/12/27 07:23:15;;;;;;;3.05;1.40;;;;;;;17.68;45.10;102237.47;5043945;28;20626;-61
2022/12/27 07:25:40;;;;;;;4.00;1.60;;;;;;;17.67;45.17;102238.47;5043524;28;20036;-62
2022/12/27 07:28:06;;;;;;;4.22;1.70;;;;;;;17.69;45.13;102238.31;5043906;28;20021;-61
2022/12/27 07:30:31;;;;;;;4.45;1.25;;;;;;;17.68;45.39;102242.00;5043359;28;20029;-61
2022/12/27 07:32:56;;;;;;;2.92;1.58;;;;;;;17.68;45.42;102244.69;5043779;28;20061;-61
2022/12/27 07:35:21;;;;;;;4.03;1.90;;;;;;;17.68;45.25;102240.16;5043415;28;20025;-61
2022/12/27 07:37:47;;;;;;;4.78;2.00;;;;;;;17.69;45.08;102252.63;5044355;28;20018;-61
2022/12/27 07:40:12;;;;;;;3.03;1.45;;;;;;;17.72;45.17;102252.38;5043836;28;20501;-61
2022/12/27 07:42:37;;;;;;;4.03;1.40;;;;;;;17.72;45.23;102257.75;5059369;28;20029;-61
2022/12/27 07:45:03;;;;;;;2.83;1.30;;;;;;;17.72;45.38;102263.13;5043367;28;20029;-61
2022/12/27 07:47:28;;;;;;;4.00;1.70;;;;;;;17.73;45.21;102256.78;5043084;28;20112;-61
2022/12/27 07:49:53;;;;;;;1.90;1.15;;;;;;;17.71;45.06;102255.19;5043140;28;20120;-61
2022/12/27 07:52:19;;;;;;;2.47;1.25;;;;;;;17.75;45.09;102262.03;5043654;28;20036;-60
2022/12/27 07:54:44;;;;;;;2.17;1.33;;;;;;;17.77;45.07;102264.63;5042073;28;20583;-62
2022/12/27 07:57:09;;;;;;;3.67;1.40;;;;;;;17.77;45.14;102264.63;5043330;28;20013;-61
2022/12/27 07:59:34;;;;;;;1.85;1.20;;;;;;;17.79;44.81;102265.34;5042900;28;20029;-62
2022/12/27 08:02:02;;;;;;;2.75;1.45;;;;;;;17.80;44.88;102270.59;5043034;28;20021;-61
2022/12/27 08:04:28;;;;;;;2.20;1.30;;;;;;;17.79;45.03;102268.88;5043305;28;20021;-61
2022/12/27 08:06:56;;;;;;;3.05;1.48;;;;;;;17.73;45.20;102266.69;5042802;28;20041;-61
2022/12/27 08:09:25;;;;;;;2.90;1.38;;;;;;;17.78;44.91;102279.78;5046127;28;20103;-61
2022/12/27 08:11:50;;;;;;;;;;;;;;;17.81;44.83;102293.84;5039698;28;20026;-61
2022/12/27 08:14:16;;;;;;;2.60;1.30;;;;;;;17.82;44.63;102300.06;5042536;28;19936;-61
2022/12/27 08:16:41;;;;;;;3.47;1.83;;;;;;;17.83;44.86;102308.00;5041360;28;20075;-61
2022/12/27 08:19:06;;;;;;;4.10;1.38;;;;;;;17.81;45.01;102309.13;5043211;28;20040;-61
2022/12/27 08:21:31;;;;;;;3.58;1.30;;;;;;;17.81;44.97;102311.81;5043003;28;20075;-61
2022/12/27 08:23:57;;;;;;;3.45;1.58;;;;;;;17.84;44.80;102314.22;5041147;28;20075;-61
2022/12/27 08:26:23;;;;;;;3.00;1.50;;;;;;;17.82;45.22;102310.81;5042602;28;20044;-61
2022/12/27 08:28:48;;;;;;;3.40;1.45;;;;;;;17.80;45.39;102319.03;5041567;28;20036;-61
2022/12/27 08:31:13;;;;;;;2.97;1.48;;;;;;;17.79;45.29;102314.59;5042071;28;20034;-62
2022/12/27 08:33:40;;;;;;;2.22;1.20;;;;;;;17.81;45.23;102311.81;5043018;28;20048;-61
2022/12/27 08:36:08;;;;;;;3.17;1.45;;;;;;;17.81;45.35;102309.13;5044223;28;20104;-60
2022/12/27 08:38:33;;;;;;;2.13;1.33;;;;;;;17.82;45.28;102314.38;5047153;28;20045;-61
2022/12/27 08:40:58;;;;;;;5.07;1.27;;;;;;;17.82;45.38;102305.44;5046730;28;20550;-61
2022/12/27 08:43:24;;;;;;;16.33;2.55;;;;;;;17.84;45.42;102317.78;5046835;28;20021;-60
2022/12/27 08:45:49;;;;;;;2.20;1.52;;;;;;;17.84;45.65;102309.72;5046296;28;20091;-61
2022/12/27 08:48:14;;;;;;;2.42;1.30;;;;;;;17.85;45.38;102316.81;5046935;28;20049;-61
2022/12/27 08:50:40;;;;;;;3.35;1.17;;;;;;;17.88;45.41;102321.06;5047161;28;20490;-60
2022/12/27 08:53:05;;;;;;;2.22;1.42;;;;;;;17.89;45.27;102315.56;5047136;28;20030;-61
2022/12/27 08:55:31;;;;;;;3.08;1.58;;;;;;;17.93;45.47;102318.88;5047150;28;20021;-61
2022/12/27 08:58:00;;;;;;;2.35;1.27;;;;;;;17.93;45.24;102321.56;5047027;28;20615;-60
2022/12/27 09:00:26;;;;;;;3.22;1.40;;;;;;;17.90;45.07;102306.50;5045846;28;20085;-61
2022/12/27 09:02:52;;;;;;;2.40;1.40;;;;;;;17.91;45.21;102307.38;5046847;28;20026;-61
2022/12/27 09:05:18;;;;;;;2.08;1.27;;;;;;;17.98;44.97;102327.41;5045935;28;20033;-61
2022/12/27 09:07:44;;;;;;;5.32;1.45;;;;;;;17.98;45.15;102316.63;5045679;28;20040;-61
2022/12/27 09:10:09;;;;;;;5.57;1.30;;;;;;;17.99;44.78;102319.19;5046154;28;20030;-61
2022/12/27 09:12:34;;;;;;;2.15;1.50;;;;;;;18.01;44.96;102323.59;5046555;28;20033;-61
2022/12/27 09:15:00;;;;;;;2.75;1.30;;;;;;;18.03;44.40;102333.25;5046068;28;20036;-61
2022/12/27 09:17:25;;;;;;;4.15;1.45;;;;;;;17.96;44.65;102315.91;5041393;28;20021;-61
2022/12/27 09:19:50;;;;;;;2.38;1.30;;;;;;;18.04;44.73;102334.09;5046084;28;20660;-61
2022/12/27 09:22:15;;;;;;;2.30;1.40;;;;;;;18.01;44.62;102315.50;5046811;28;20025;-61
2022/12/27 09:24:41;;;;;;;2.58;1.25;;;;;;;18.04;44.37;102320.66;5046779;28;20021;-61
2022/12/27 09:27:06;;;;;;;2.55;1.33;;;;;;;18.07;44.28;102325.78;5046457;28;20080;-61
2022/12/27 09:29:32;;;;;;;3.22;1.40;;;;;;;18.07;44.26;102331.16;5046594;28;20116;-61
2022/12/27 09:31:57;;;;;;;2.75;1.80;;;;;;;18.07;44.32;102334.72;5045895;28;20043;-61
2022/12/27 09:34:22;;;;;;;2.78;1.52;;;;;;;18.05;44.35;102327.72;5045824;28;20029;-61
2022/12/27 09:36:49;;;;;;;2.42;1.40;;;;;;;18.05;44.42;102333.13;5033784;28;20025;-61
2022/12/27 09:39:16;;;;;;;2.45;1.20;;;;;;;18.06;44.30;102326.78;5046575;28;20044;-61
2022/12/27 09:41:47;;;;;;;1.70;1.20;;;;;;;18.06;44.33;102329.47;5045103;28;20022;-61
2022/12/27 09:44:32;;;;;;;3.97;1.50;;;;;;;18.06;44.09;102332.16;5045246;28;20056;-61
2022/12/27 09:47:14;;;;;;;2.63;1.20;;;;;;;18.06;44.04;102326.78;5044166;28;20032;-61
2022/12/27 09:49:45;;;;;;;2.38;1.35;;;;;;;18.04;44.17;102334.94;5044915;28;20046;-61
2022/12/27 09:52:12;;;;;;;2.17;1.27;;;;;;;18.04;44.23;102344.88;5044917;28;20021;-61
2022/12/27 09:54:43;;;;;;;3.40;1.42;;;;;;;18.05;44.28;102346.56;5044918;28;20029;-62
2022/12/27 09:57:30;;;;;;;3.33;1.30;;;;;;;18.03;44.15;102345.84;5046088;28;20024;-61
2022/12/27 09:59:57;;;;;;;2.53;1.50;;;;;;;18.02;44.03;102344.16;5056973;28;20032;-61
2022/12/27 10:02:25;;;;;;;1.83;1.33;;;;;;;18.04;44.02;102347.56;5046204;28;20033;-62
2022/12/27 10:04:51;;;;;;;2.53;1.60;;;;;;;17.97;44.05;102337.31;5031752;28;20053;-61
2022/12/27 10:07:35;;;;;;;3.45;1.40;;;;;;;18.04;43.95;102344.88;5061187;28;20026;-61
2022/12/27 10:10:12;;;;;;;2.47;1.58;;;;;;;18.05;44.16;102341.19;5044786;28;20039;-61
2022/12/27 10:12:57;;;;;;;4.10;1.33;;;;;;;18.06;44.02;102353.69;5045985;28;20052;-61
2022/12/27 10:15:38;;;;;;;1.65;1.00;;;;;;;18.08;44.02;102349.88;5044801;28;20024;-61
2022/12/27 10:18:31;;;;;;;3.42;1.80;;;;;;;18.07;44.02;102342.78;5045953;28;20029;-62
2022/12/27 10:21:23;;;;;;;1.88;1.23;;;;;;;18.08;43.85;102340.94;5032038;28;20382;-62
2022/12/27 10:23:54;;;;;;;5.25;1.77;;;;;;;18.10;43.88;102344.38;5040932;28;20060;-61
2022/12/27 10:26:20;;;;;;;3.35;1.60;;;;;;;18.08;43.59;102349.00;5044141;28;20030;-61
2022/12/27 10:28:51;;;;;;;4.22;1.60;;;;;;;18.04;43.91;102339.47;5044267;28;20053;-61
2022/12/27 10:31:20;;;;;;;2.97;1.30;;;;;;;18.10;44.01;102347.91;5043671;28;20036;-61
2022/12/27 10:33:46;;;;;;;3.78;1.70;;;;;;;18.11;43.78;102335.31;5044423;28;20041;-61
2022/12/27 10:36:33;;;;;;;3.03;1.70;;;;;;;18.09;43.94;102334.56;5045030;28;20386;-61
2022/12/27 10:39:02;;;;;;;3.63;1.58;;;;;;;18.11;43.68;102344.22;5045302;28;20073;-61
2022/12/27 10:41:53;;;;;;;4.55;1.80;;;;;;;18.14;43.97;102351.22;5044995;28;20025;-61
2022/12/27 10:44:18;;;;;;;5.25;1.80;;;;;;;18.10;43.83;102347.06;5061029;28;20429;-61
2022/12/27 10:46:48;;;;;;;3.30;1.58;;;;;;;18.02;43.78;102347.69;5043843;28;20063;-61
2022/12/27 10:49:28;;;;;;;3.40;1.90;;;;;;;18.10;43.62;102361.38;5044002;28;20049;-61
2022/12/27 10:52:27;;;;;;;4.97;1.90;;;;;;;18.12;43.47;102362.09;5045174;28;20040;-61
2022/12/27 10:54:54;;;;;;;5.38;1.85;;;;;;;18.16;43.85;102370.75;5044326;28;20120;-61
2022/12/27 10:57:32;;;;;;;3.42;1.90;;;;;;;18.16;43.62;102374.31;5044519;28;20237;-61
2022/12/27 11:00:12;;;;;;;4.22;1.83;;;;;;;18.18;43.48;102366.09;5040696;28;20033;-61
2022/12/27 11:02:59;;;;;;;4.28;1.85;;;;;;;18.17;43.92;102364.38;5044398;28;20496;-61
2022/12/27 11:05:32;;;;;;;4.05;2.17;;;;;;;18.15;43.49;102353.75;5034528;28;20032;-61
2022/12/27 11:07:57;;;;;;;5.55;2.03;;;;;;;18.18;43.48;102353.50;5044755;28;20029;-61
2022/12/27 11:10:25;;;;;;;4.07;1.77;;;;;;;18.19;43.48;102359.75;5044521;28;20033;-61
2022/12/27 11:13:01;;;;;;;4.07;1.80;;;;;;;18.20;43.59;102364.13;5044644;28;20037;-61
2022/12/27 11:15:29;;;;;;;4.10;1.60;;;;;;;18.21;43.45;102364.00;5043918;28;20065;-61
2022/12/27 11:18:16;;;;;;;3.83;1.90;;;;;;;18.23;43.59;102356.66;5043170;28;20037;-61
2022/12/27 11:20:50;;;;;;;4.05;1.98;;;;;;;18.27;43.66;102364.50;5044020;28;20100;-61
2022/12/27 11:23:17;;;;;;;4.68;2.10;;;;;;;18.29;43.86;102355.28;5043193;28;20030;-61
2022/12/27 11:25:52;;;;;;;6.13;2.28;;;;;;;18.32;44.09;102360.41;5044307;28;20454;-61
2022/12/27 11:28:32;;;;;;;5.60;2.28;;;;;;;18.37;44.23;102360.03;5044371;28;20029;-61
2022/12/27 11:31:12;;;;;;;5.18;2.47;;;;;;;18.36;44.12;102355.63;5042608;28;20025;-61
2022/12/27 11:33:46;;;;;;;5.50;3.58;;;;;;;18.40;44.37;102360.63;5044274;28;20064;-61
2022/12/27 11:36:13;;;;;;;4.65;2.00;;;;;;;18.41;44.15;102362.34;5042462;28;20029;-61
2022/12/27 11:38:42;;;;;;;3.67;1.70;;;;;;;18.43;44.37;102354.09;5054710;28;20454;-61
2022/12/27 11:41:12;;;;;;;4.47;1.92;;;;;;;18.44;44.45;102362.09;5043142;28;20033;-61
2022/12/27 11:43:48;;;;;;;3.10;1.80;;;;;;;18.46;44.26;102349.31;5042617;28;20029;-61
2022/12/27 11:46:26;;;;;;;3.90;1.77;;;;;;;18.49;44.37;102350.91;5042466;28;20542;-61
2022/12/27 11:48:55;;;;;;;4.22;2.28;;;;;;;18.48;44.32;102346.53;5042910;28;20042;-61
2022/12/27 11:51:33;;;;;;;;;;;;;;;18.49;44.39;102337.44;5043934;28;20028;-61
2022/12/27 11:54:18;;;;;;;3.72;1.90;;;;;;;18.47;44.11;102334.88;5043954;28;19913;-61
2022/12/27 11:56:47;;;;;;;6.28;2.17;;;;;;;18.47;44.54;102337.56;5048462;28;20021;-61
2022/12/27 11:59:24;;;;;;;4.07;2.22;;;;;;;18.47;44.83;102336.72;5042153;28;20021;-61
2022/12/27 12:02:25;;;;;;;5.20;1.85;;;;;;;18.45;44.78;102331.47;5043577;28;20037;-62
2022/12/27 12:05:18;;;;;;;3.63;1.83;;;;;;;18.48;44.84;102339.28;5014797;28;20052;-61
2022/12/27 12:07:59;;;;;;;3.83;1.67;;;;;;;18.48;44.94;102346.53;5015992;28;20038;-62
2022/12/27 12:10:54;;;;;;;3.05;1.90;;;;;;;18.46;44.83;102330.47;5003416;28;20022;-61
2022/12/27 12:13:23;;;;;;;5.38;2.00;;;;;;;18.48;44.97;102330.34;5019250;28;20045;-62
2022/12/27 12:15:51;;;;;;;3.80;2.00;;;;;;;18.47;45.01;102320.53;5018179;28;20033;-62
2022/12/27 12:18:29;;;;;;;4.57;1.90;;;;;;;18.40;45.04;102303.22;5020439;28;20029;-61
2022/12/27 12:21:13;;;;;;;5.38;1.95;;;;;;;18.47;44.91;102307.09;5020049;28;20050;-61
2022/12/27 12:23:50;;;;;;;3.53;1.70;;;;;;;18.47;44.82;102309.78;5017272;28;20030;-62
2022/12/27 12:26:19;;;;;;;3.58;1.70;;;;;;;18.48;45.10;102306.97;5018513;28;20030;-61
2022/12/27 12:29:06;;;;;;;4.57;2.10;;;;;;;18.48;44.96;102308.81;5018774;28;20097;-62
2022/12/27 12:31:50;;;;;;;3.35;1.55;;;;;;;18.49;45.14;102305.97;5020131;28;20025;-62
2022/12/27 12:34:47;;;;;;;5.47;2.17;;;;;;;18.51;45.20;102307.69;5017730;28;20036;-62
2022/12/27 12:37:22;;;;;;;3.40;1.58;;;;;;;18.54;45.32;102304.72;5002408;28;20425;-62
2022/12/27 12:39:50;;;;;;;2.38;1.55;;;;;;;18.55;44.94;102295.66;5025471;28;20049;-62
2022/12/27 12:42:47;;;;;;;1.70;1.30;;;;;;;18.58;45.11;102290.84;5043109;28;20025;-62
2022/12/27 12:45:45;;;;;;;6.28;1.60;;;;;;;18.60;45.25;102291.56;5037072;28;20270;-62
2022/12/27 12:48:29;;;;;;;3.55;1.67;;;;;;;18.59;45.24;102287.16;5043844;28;20096;-61
2022/12/27 12:51:17;;;;;;;3.42;1.35;;;;;;;18.61;45.33;102278.97;5042478;28;20030;-61
2022/12/27 12:53:54;;;;;;;4.78;1.83;;;;;;;18.61;45.17;102277.13;5041047;28;20112;-62
2022/12/27 12:56:49;;;;;;;3.17;2.10;;;;;;;18.61;45.45;102276.28;5057794;28;20653;-61
2022/12/27 12:59:45;;;;;;;4.88;2.10;;;;;;;18.62;45.32;102281.53;5041284;28;20029;-62
2022/12/27 13:02:22;;;;;;;2.90;1.60;;;;;;;18.62;45.18;102273.44;5043161;28;20131;-61
2022/12/27 13:05:07;;;;;;;2.05;1.67;;;;;;;18.62;45.29;102265.38;5041404;28;20053;-62
2022/12/27 13:07:39;;;;;;;2.78;1.63;;;;;;;18.61;45.29;102260.97;5042332;28;20762;-61
2022/12/27 13:10:17;;;;;;;5.20;2.00;;;;;;;18.61;45.21;102252.88;5041229;28;20025;-61
2022/12/27 13:12:51;;;;;;;4.50;2.17;;;;;;;18.61;45.13;102249.34;5042126;28;20464;-61
2022/12/27 13:15:36;;;;;;;3.00;1.70;;;;;;;18.60;45.13;102237.69;5053979;28;20363;-61
2022/12/27 13:18:16;;;;;;;2.55;1.98;;;;;;;18.60;45.48;102236.84;5040637;28;20076;-62
2022/12/27 13:21:03;;;;;;;3.08;1.95;;;;;;;18.59;45.23;102232.44;5043113;28;20029;-61